createdAt,value
2022-11-15T00:00:33.131Z,4.51
2022-11-15T00:03:37.656Z,4.50
2022-11-15T00:06:41.295Z,4.49
2022-11-15T00:09:46.396Z,4.52
2022-11-15T00:12:51.233Z,4.56
2022-11-15T00:16:02.717Z,4.46
2022-11-15T00:19:05.501Z,4.46
2022-11-15T00:22:08.494Z,4.36
2022-11-15T00:25:12.227Z,4.29
2022-11-15T00:28:15.181Z,4.27
2022-11-15T00:31:18.376Z,4.28
2022-11-15T00:34:21.470Z,4.31
2022-11-15T00:37:23.953Z,4.31
2022-11-15T00:40:27.455Z,4.31
2022-11-15T00:43:31.877Z,4.44
2022-11-15T00:46:36.700Z,4.50
2022-11-15T00:49:39.497Z,4.50
2022-11-15T00:52:42.169Z,4.53
2022-11-15T00:55:48.531Z,4.46
2022-11-15T00:58:56.023Z,4.53
2022-11-15T01:01:59.216Z,4.62
2022-11-15T01:05:07.022Z,4.60
2022-11-15T01:08:13.762Z,4.55
2022-11-15T01:11:17.626Z,4.57
2022-11-15T01:14:25.889Z,4.54
2022-11-15T01:17:29.532Z,4.57
2022-11-15T01:20:32.304Z,4.73
2022-11-15T01:23:36.003Z,4.74
2022-11-15T01:26:39.401Z,4.79
2022-11-15T01:29:41.878Z,4.79
2022-11-15T01:32:45.787Z,4.79
2022-11-15T01:35:48.877Z,4.80
2022-11-15T01:38:59.443Z,4.81
2022-11-15T01:42:02.982Z,4.80
2022-11-15T01:45:07.673Z,4.89
2022-11-15T01:48:12.662Z,4.85
2022-11-15T01:51:18.460Z,4.86
2022-11-15T01:54:22.991Z,4.81
2022-11-15T01:57:25.357Z,4.78
2022-11-15T02:00:27.707Z,4.86
2022-11-15T02:03:37.682Z,4.88
2022-11-15T02:06:50.138Z,4.97
2022-11-15T02:09:55.063Z,4.94
2022-11-15T02:12:58.299Z,4.92
2022-11-15T02:16:05.404Z,5.06
2022-11-15T02:19:26.751Z,5.09
2022-11-15T02:22:28.812Z,4.90
2022-11-15T02:25:49.492Z,4.76
2022-11-15T02:29:04.562Z,4.84
2022-11-15T02:32:26.200Z,4.80
2022-11-15T02:35:47.359Z,4.71
2022-11-15T02:38:52.747Z,4.73
2022-11-15T02:42:29.943Z,4.70
2022-11-15T02:45:34.732Z,4.62
2022-11-15T02:48:41.748Z,4.72
2022-11-15T02:51:46.332Z,4.67
2022-11-15T02:54:56.457Z,4.76
2022-11-15T02:57:59.009Z,4.77
2022-11-15T03:01:04.849Z,4.80
2022-11-15T03:04:10.828Z,4.79
2022-11-15T03:07:32.002Z,4.75
2022-11-15T03:10:44.136Z,4.67
2022-11-15T03:14:07.708Z,4.64
2022-11-15T03:17:13.253Z,4.60
2022-11-15T03:20:17.477Z,4.67
2022-11-15T03:23:20.938Z,4.66
2022-11-15T03:26:28.682Z,4.63
2022-11-15T03:29:34.529Z,4.81
2022-11-15T03:32:43.664Z,4.72
2022-11-15T03:35:47.068Z,4.63
2022-11-15T03:38:49.658Z,4.68
2022-11-15T03:42:10.863Z,4.73
2022-11-15T03:45:20.080Z,4.84
2022-11-15T03:48:26.755Z,4.84
2022-11-15T03:51:30.767Z,4.84
2022-11-15T03:54:34.050Z,4.85
2022-11-15T03:57:39.406Z,4.90
2022-11-15T04:00:44.083Z,4.82
2022-11-15T04:03:50.709Z,4.81
2022-11-15T04:06:53.141Z,4.78
2022-11-15T04:10:10.200Z,4.89
2022-11-15T04:13:13.612Z,4.80
2022-11-15T04:16:17.328Z,4.78
2022-11-15T04:19:38.791Z,4.82
2022-11-15T04:23:00.440Z,4.84
2022-11-15T04:26:08.918Z,4.82
2022-11-15T04:29:31.425Z,4.85
2022-11-15T04:32:34.202Z,4.90
2022-11-15T04:35:37.186Z,4.84
2022-11-15T04:38:49.489Z,4.78
2022-11-15T04:41:54.419Z,4.79
2022-11-15T04:44:59.573Z,4.76
2022-11-15T04:48:02.855Z,4.73
2022-11-15T04:51:05.870Z,4.67
2022-11-15T04:54:14.565Z,4.72
2022-11-15T04:57:27.913Z,4.80
2022-11-15T05:00:32.124Z,4.95
2022-11-15T05:03:52.705Z,4.92
2022-11-15T05:06:55.472Z,4.96
2022-11-15T05:10:00.455Z,5.03
2022-11-15T05:13:03.521Z,5.17
2022-11-15T05:16:05.918Z,5.18
2022-11-15T05:19:08.748Z,5.19
2022-11-15T05:22:14.545Z,5.18
2022-11-15T05:25:17.497Z,5.18
2022-11-15T05:28:21.429Z,5.25
2022-11-15T05:31:25.568Z,5.20
2022-11-15T05:34:32.321Z,5.23
2022-11-15T05:37:34.374Z,5.27
2022-11-15T05:40:39.359Z,5.35
2022-11-15T05:43:45.040Z,5.46
2022-11-15T05:46:53.698Z,5.47
2022-11-15T05:50:00.892Z,5.60
2022-11-15T05:53:05.433Z,5.65
2022-11-15T05:56:08.601Z,5.67
2022-11-15T05:59:12.308Z,5.62
2022-11-15T06:02:16.142Z,5.55
2022-11-15T06:05:20.098Z,5.48
2022-11-15T06:08:23.316Z,5.43
2022-11-15T06:11:29.070Z,5.43
2022-11-15T06:14:38.114Z,5.41
2022-11-15T06:17:41.367Z,5.46
2022-11-15T06:20:45.040Z,5.51
2022-11-15T06:23:47.983Z,5.50
2022-11-15T06:26:50.567Z,5.52
2022-11-15T06:29:54.788Z,5.48
2022-11-15T06:33:04.936Z,5.56
2022-11-15T06:36:16.090Z,5.54
2022-11-15T06:39:20.743Z,5.58
2022-11-15T06:42:24.356Z,5.46
2022-11-15T06:45:27.845Z,5.56
2022-11-15T06:48:32.688Z,5.60
2022-11-15T06:51:41.732Z,5.62
2022-11-15T06:54:44.386Z,5.64
2022-11-15T06:57:52.003Z,5.62
2022-11-15T07:01:05.828Z,5.71
2022-11-15T07:04:09.985Z,5.81
2022-11-15T07:07:13.021Z,5.77
2022-11-15T07:10:17.790Z,5.79
2022-11-15T07:13:21.568Z,5.79
2022-11-15T07:16:25.417Z,5.80
2022-11-15T07:19:30.220Z,5.83
2022-11-15T07:22:33.208Z,5.95
2022-11-15T07:25:37.318Z,6.10
2022-11-15T07:28:43.066Z,6.22
2022-11-15T07:31:46.189Z,6.25
2022-11-15T07:34:51.712Z,6.22
2022-11-15T07:38:04.526Z,6.29
2022-11-15T07:41:08.643Z,6.34
2022-11-15T07:44:14.607Z,6.35
2022-11-15T07:47:18.515Z,6.30
2022-11-15T07:50:21.701Z,6.18
2022-11-15T07:53:25.113Z,6.09
2022-11-15T07:56:27.468Z,6.08
2022-11-15T07:59:29.404Z,6.15
2022-11-15T08:02:33.169Z,6.27
2022-11-15T08:05:40.429Z,6.32
2022-11-15T08:08:43.826Z,6.42
2022-11-15T08:11:47.019Z,6.38
2022-11-15T08:14:53.000Z,6.29
2022-11-15T08:17:59.552Z,6.16
2022-11-15T08:21:04.293Z,6.22
2022-11-15T08:24:10.441Z,6.39
2022-11-15T08:27:17.705Z,6.49
2022-11-15T08:30:20.822Z,6.27
2022-11-15T08:33:24.334Z,6.01
2022-11-15T08:36:26.240Z,6.05
2022-11-15T08:39:32.365Z,6.16
2022-11-15T08:42:35.280Z,6.30
2022-11-15T08:45:38.873Z,6.16
2022-11-15T08:48:40.842Z,6.24
2022-11-15T08:51:49.669Z,6.33
2022-11-15T08:54:51.940Z,6.25
2022-11-15T08:57:56.958Z,6.22
2022-11-15T09:01:05.748Z,6.17
2022-11-15T09:04:14.913Z,6.14
2022-11-15T09:07:17.249Z,6.15
2022-11-15T09:10:19.353Z,6.28
2022-11-15T09:13:21.751Z,6.38
2022-11-15T09:16:24.592Z,6.44
2022-11-15T09:19:26.635Z,6.70
2022-11-15T09:22:33.143Z,6.95
2022-11-15T09:25:39.786Z,6.93
2022-11-15T09:28:43.639Z,7.12
2022-11-15T09:31:47.315Z,7.20
2022-11-15T09:34:49.832Z,7.33
2022-11-15T09:38:06.144Z,7.45
2022-11-15T09:41:25.708Z,7.44
2022-11-15T09:44:37.625Z,7.24
2022-11-15T09:47:48.455Z,7.38
2022-11-15T09:50:51.493Z,7.36
2022-11-15T09:57:22.845Z,7.65
2022-11-15T10:00:47.400Z,7.75
2022-11-15T10:03:53.458Z,7.77
2022-11-15T10:32:35.529Z,7.29
2022-11-15T10:45:46.581Z,7.58
2022-11-15T11:00:07.158Z,7.67
2022-11-15T11:03:30.937Z,7.75
2022-11-15T11:06:53.441Z,7.96
2022-11-15T11:10:01.888Z,8.03
2022-11-15T11:13:15.550Z,8.01
2022-11-15T11:16:42.562Z,8.07
2022-11-15T11:19:55.584Z,7.83
2022-11-15T11:23:19.833Z,7.57
2022-11-15T11:26:25.328Z,7.66
2022-11-15T11:29:52.251Z,7.50
2022-11-15T11:33:13.745Z,7.56
2022-11-15T11:36:35.448Z,7.44
2022-11-15T11:43:11.436Z,7.46
2022-11-15T11:46:18.698Z,7.43
2022-11-15T11:49:41.539Z,7.37
2022-11-15T11:53:04.342Z,7.39
2022-11-15T11:56:25.518Z,7.31
2022-11-15T11:59:39.289Z,7.22
2022-11-15T12:03:01.864Z,7.22
2022-11-15T12:06:27.863Z,7.18
2022-11-15T12:09:46.280Z,7.23
2022-11-15T12:13:17.279Z,7.30
2022-11-15T12:16:49.421Z,7.32
2022-11-15T12:19:55.978Z,7.40
2022-11-15T12:23:15.938Z,7.50
2022-11-15T12:26:27.930Z,7.47
2022-11-15T12:29:43.766Z,7.51
2022-11-15T12:32:55.754Z,7.57
2022-11-15T12:36:14.830Z,7.55
2022-11-15T12:39:22.595Z,7.52
2022-11-15T12:46:40.586Z,7.33
2022-11-15T12:49:50.323Z,7.24
2022-11-15T12:53:32.165Z,7.10
2022-11-15T13:06:54.950Z,6.58
2022-11-15T13:09:57.648Z,6.74
2022-11-15T13:13:11.868Z,6.81
2022-11-15T13:16:21.431Z,6.69
2022-11-15T13:19:24.925Z,6.92
2022-11-15T13:22:56.553Z,7.06
2022-11-15T13:26:11.490Z,7.15
2022-11-15T13:42:53.610Z,6.96
2022-11-15T13:46:11.497Z,6.99
2022-11-15T13:49:13.654Z,7.08
2022-11-15T13:52:19.385Z,6.92
2022-11-15T13:56:20.878Z,6.77
2022-11-15T13:59:38.755Z,6.77
2022-11-15T14:02:53.657Z,6.71
2022-11-15T14:09:36.306Z,6.68
2022-11-15T14:12:40.059Z,6.59
2022-11-15T14:15:44.663Z,6.52
2022-11-15T14:18:51.454Z,6.63
2022-11-15T14:22:12.631Z,6.72
2022-11-15T14:25:24.344Z,6.76
2022-11-15T14:28:26.684Z,6.74
2022-11-15T14:31:29.881Z,6.67
2022-11-15T14:34:33.480Z,6.75
2022-11-15T14:37:36.362Z,6.71
2022-11-15T14:40:40.174Z,6.64
2022-11-15T14:43:42.442Z,6.62
2022-11-15T14:46:44.774Z,6.62
2022-11-15T14:49:47.410Z,6.60
2022-11-15T14:52:50.197Z,6.71
2022-11-15T14:55:52.745Z,6.66
2022-11-15T14:58:56.755Z,6.62
2022-11-15T15:02:03.904Z,6.68
2022-11-15T15:05:22.778Z,6.68
2022-11-15T15:08:26.117Z,6.60
2022-11-15T15:11:32.653Z,6.56
2022-11-15T15:14:35.057Z,6.67
2022-11-15T15:17:37.532Z,6.70
2022-11-15T15:20:41.036Z,6.69
2022-11-15T15:23:48.613Z,6.73
2022-11-15T15:26:55.360Z,6.62
2022-11-15T15:29:57.533Z,6.69
2022-11-15T15:33:04.233Z,6.65
2022-11-15T15:36:15.329Z,6.65
2022-11-15T15:39:17.469Z,6.75
2022-11-15T15:42:21.432Z,6.81
2022-11-15T15:45:24.338Z,6.77
2022-11-15T15:48:26.355Z,6.80
2022-11-15T15:51:30.481Z,6.77
2022-11-15T15:54:36.543Z,6.67
2022-11-15T15:57:38.882Z,6.56
2022-11-15T16:00:41.625Z,6.65
2022-11-15T16:03:44.239Z,6.71
2022-11-15T16:06:47.095Z,6.70
2022-11-15T16:10:08.619Z,6.59
2022-11-15T16:13:14.638Z,6.53
2022-11-15T16:16:24.177Z,6.55
2022-11-15T16:19:26.849Z,6.57
2022-11-15T16:22:34.857Z,6.64
2022-11-15T16:25:42.164Z,6.74
2022-11-15T16:28:44.524Z,6.75
2022-11-15T16:31:46.723Z,6.77
2022-11-15T16:34:49.533Z,6.70
2022-11-15T16:37:52.483Z,6.70
2022-11-15T16:40:55.660Z,6.60
2022-11-15T16:44:02.857Z,6.69
2022-11-15T16:47:46.131Z,6.66
2022-11-15T16:51:00.747Z,6.66
2022-11-15T16:54:03.625Z,6.69
2022-11-15T17:01:16.227Z,6.78
2022-11-15T17:05:11.853Z,6.61
2022-11-15T17:12:00.397Z,6.73
2022-11-15T17:15:10.836Z,6.74
2022-11-15T17:18:46.800Z,6.68
2022-11-15T17:22:03.918Z,6.54
2022-11-15T17:25:10.207Z,6.34
2022-11-15T17:28:22.948Z,6.34
2022-11-15T17:31:32.538Z,6.40
2022-11-15T17:41:37.375Z,6.57
